sensor_id;sensor_type;location;lat;lon;timestamp;temperature;humidity
1994;DHT22;998;49.906;10.908;2023-04-01T00:01:03;10.00;99.90
1994;DHT22;998;49.906;10.908;2023-04-01T00:03:31;10.00;99.90
1994;DHT22;998;49.906;10.908;2023-04-01T00:06:00;10.00;99.90
1994;DHT22;998;49.906;10.908;2023-04-01T00:08:28;10.00;99.90
1994;DHT22;998;49.906;10.908;2023-04-01T00:10:55;10.10;99.90
1994;DHT22;998;49.906;10.908;2023-04-01T00:13:25;10.00;99.90
1994;DHT22;998;49.906;10.908;2023-04-01T00:15:53;10.20;99.90
1994;DHT22;998;49.906;10.908;2023-04-01T00:18:21;10.10;99.90
1994;DHT22;998;49.906;10.908;2023-04-01T00:20:50;10.00;99.90
1994;DHT22;998;49.906;10.908;2023-04-01T00:23:19;10.10;99.90
1994;DHT22;998;49.906;10.908;2023-04-01T00:25:47;10.10;99.90
1994;DHT22;998;49.906;10.908;2023-04-01T00:28:15;10.10;99.90
1994;DHT22;998;49.906;10.908;2023-04-01T00:30:44;10.20;99.90
1994;DHT22;998;49.906;10.908;2023-04-01T00:33:11;10.30;99.90
1994;DHT22;998;49.906;10.908;2023-04-01T00:35:39;10.30;99.90
1994;DHT22;998;49.906;10.908;2023-04-01T00:38:07;10.30;99.90
1994;DHT22;998;49.906;10.908;2023-04-01T00:40:38;10.20;99.90
1994;DHT22;998;49.906;10.908;2023-04-01T00:43:12;10.30;99.90
1994;DHT22;998;49.906;10.908;2023-04-01T00:45:41;10.40;99.90
1994;DHT22;998;49.906;10.908;2023-04-01T00:48:14;10.40;99.90
1994;DHT22;998;49.906;10.908;2023-04-01T00:50:46;10.40;99.90
1994;DHT22;998;49.906;10.908;2023-04-01T00:53:15;10.50;99.90
1994;DHT22;998;49.906;10.908;2023-04-01T00:55:47;10.50;99.90
1994;DHT22;998;49.906;10.908;2023-04-01T00:58:18;10.40;99.90
1994;DHT22;998;49.906;10.908;2023-04-01T01:00:49;10.60;99.90
1994;DHT22;998;49.906;10.908;2023-04-01T01:03:18;10.40;99.90
1994;DHT22;998;49.906;10.908;2023-04-01T01:06:08;10.40;99.90
1994;DHT22;998;49.906;10.908;2023-04-01T01:08:52;10.40;99.90
1994;DHT22;998;49.906;10.908;2023-04-01T01:11:29;10.50;99.90
1994;DHT22;998;49.906;10.908;2023-04-01T01:14:05;10.30;99.90
1994;DHT22;998;49.906;10.908;2023-04-01T01:16:43;10.30;99.90
1994;DHT22;998;49.906;10.908;2023-04-01T01:19:27;10.40;99.90
1994;DHT22;998;49.906;10.908;2023-04-01T01:22:24;10.50;99.90
1994;DHT22;998;49.906;10.908;2023-04-01T01:27:58;10.50;99.90
1994;DHT22;998;49.906;10.908;2023-04-01T01:30:39;10.40;99.90
1994;DHT22;998;49.906;10.908;2023-04-01T01:33:27;10.30;99.90
1994;DHT22;998;49.906;10.908;2023-04-01T01:36:03;10.40;99.90
1994;DHT22;998;49.906;10.908;2023-04-01T01:38:34;10.30;99.90
1994;DHT22;998;49.906;10.908;2023-04-01T01:41:04;10.30;99.90
1994;DHT22;998;49.906;10.908;2023-04-01T01:43:33;10.30;99.90
1994;DHT22;998;49.906;10.908;2023-04-01T01:46:07;10.30;99.90
1994;DHT22;998;49.906;10.908;2023-04-01T01:48:37;10.20;99.90
1994;DHT22;998;49.906;10.908;2023-04-01T01:51:07;10.20;99.90
1994;DHT22;998;49.906;10.908;2023-04-01T01:53:35;10.20;99.90
1994;DHT22;998;49.906;10.908;2023-04-01T01:56:03;10.30;99.90
1994;DHT22;998;49.906;10.908;2023-04-01T01:58:33;10.40;99.90
1994;DHT22;998;49.906;10.908;2023-04-01T02:01:07;10.30;99.90
1994;DHT22;998;49.906;10.908;2023-04-01T02:03:37;10.30;99.90
1994;DHT22;998;49.906;10.908;2023-04-01T02:06:09;10.30;99.90
1994;DHT22;998;49.906;10.908;2023-04-01T02:08:40;10.40;99.90
1994;DHT22;998;49.906;10.908;2023-04-01T02:11:11;10.40;99.90
1994;DHT22;998;49.906;10.908;2023-04-01T02:13:42;10.30;99.90
1994;DHT22;998;49.906;10.908;2023-04-01T02:16:13;10.30;99.90
1994;DHT22;998;49.906;10.908;2023-04-01T02:18:43;10.20;99.90
1994;DHT22;998;49.906;10.908;2023-04-01T02:21:15;10.20;99.90
1994;DHT22;998;49.906;10.908;2023-04-01T02:23:45;10.10;99.90
1994;DHT22;998;49.906;10.908;2023-04-01T02:26:14;10.20;99.90
1994;DHT22;998;49.906;10.908;2023-04-01T02:28:43;10.20;99.90
1994;DHT22;998;49.906;10.908;2023-04-01T02:31:13;10.10;99.90
1994;DHT22;998;49.906;10.908;2023-04-01T02:33:42;10.10;99.90
1994;DHT22;998;49.906;10.908;2023-04-01T02:36:12;10.10;99.90
1994;DHT22;998;49.906;10.908;2023-04-01T02:38:41;10.10;99.90
1994;DHT22;998;49.906;10.908;2023-04-01T02:41:09;10.20;99.90
1994;DHT22;998;49.906;10.908;2023-04-01T02:43:37;10.20;99.90
1994;DHT22;998;49.906;10.908;2023-04-01T02:46:05;10.20;99.90
1994;DHT22;998;49.906;10.908;2023-04-01T02:48:32;10.20;99.90
1994;DHT22;998;49.906;10.908;2023-04-01T02:51:00;10.20;99.90
1994;DHT22;998;49.906;10.908;2023-04-01T02:53:27;10.10;99.90
1994;DHT22;998;49.906;10.908;2023-04-01T02:55:56;10.10;99.90
1994;DHT22;998;49.906;10.908;2023-04-01T02:58:24;10.20;99.90
1994;DHT22;998;49.906;10.908;2023-04-01T03:00:51;10.20;99.90
1994;DHT22;998;49.906;10.908;2023-04-01T03:03:18;10.20;99.90
1994;DHT22;998;49.906;10.908;2023-04-01T03:05:45;10.20;99.90
1994;DHT22;998;49.906;10.908;2023-04-01T03:08:13;10.20;99.90
1994;DHT22;998;49.906;10.908;2023-04-01T03:10:40;10.30;99.90
1994;DHT22;998;49.906;10.908;2023-04-01T03:13:09;10.10;99.90
1994;DHT22;998;49.906;10.908;2023-04-01T03:15:37;10.20;99.90
1994;DHT22;998;49.906;10.908;2023-04-01T03:18:04;10.20;99.90
1994;DHT22;998;49.906;10.908;2023-04-01T03:20:31;10.20;99.90
1994;DHT22;998;49.906;10.908;2023-04-01T03:22:59;10.20;99.90
1994;DHT22;998;49.906;10.908;2023-04-01T03:25:26;10.10;99.90
1994;DHT22;998;49.906;10.908;2023-04-01T03:27:54;10.10;99.90
1994;DHT22;998;49.906;10.908;2023-04-01T03:30:23;10.10;99.90
1994;DHT22;998;49.906;10.908;2023-04-01T03:32:50;10.10;99.90
1994;DHT22;998;49.906;10.908;2023-04-01T03:35:17;10.20;99.90
1994;DHT22;998;49.906;10.908;2023-04-01T03:37:45;10.20;99.90
1994;DHT22;998;49.906;10.908;2023-04-01T03:40:12;10.10;99.90
1994;DHT22;998;49.906;10.908;2023-04-01T03:42:40;10.00;99.90
1994;DHT22;998;49.906;10.908;2023-04-01T03:45:07;10.10;99.90
1994;DHT22;998;49.906;10.908;2023-04-01T03:47:37;10.10;99.90
1994;DHT22;998;49.906;10.908;2023-04-01T03:50:06;10.10;99.90
1994;DHT22;998;49.906;10.908;2023-04-01T03:52:34;10.20;99.90
1994;DHT22;998;49.906;10.908;2023-04-01T03:55:01;10.10;99.90
1994;DHT22;998;49.906;10.908;2023-04-01T03:57:30;10.10;99.90
1994;DHT22;998;49.906;10.908;2023-04-01T03:59:58;10.10;99.90
1994;DHT22;998;49.906;10.908;2023-04-01T04:02:26;10.10;99.90
1994;DHT22;998;49.906;10.908;2023-04-01T04:04:54;10.10;99.90
1994;DHT22;998;49.906;10.908;2023-04-01T04:07:22;10.00;99.90
1994;DHT22;998;49.906;10.908;2023-04-01T04:09:49;10.10;99.90
1994;DHT22;998;49.906;10.908;2023-04-01T04:12:16;10.00;99.90
1994;DHT22;998;49.906;10.908;2023-04-01T04:14:44;10.00;99.90
1994;DHT22;998;49.906;10.908;2023-04-01T04:17:11;10.00;99.90
1994;DHT22;998;49.906;10.908;2023-04-01T04:19:42;10.00;99.90
1994;DHT22;998;49.906;10.908;2023-04-01T04:22:11;10.00;99.90
1994;DHT22;998;49.906;10.908;2023-04-01T04:24:39;10.00;99.90
1994;DHT22;998;49.906;10.908;2023-04-01T04:27:06;9.90;99.90
1994;DHT22;998;49.906;10.908;2023-04-01T04:29:33;9.90;99.90
1994;DHT22;998;49.906;10.908;2023-04-01T04:32:00;9.90;99.90
1994;DHT22;998;49.906;10.908;2023-04-01T04:34:28;10.00;99.90
1994;DHT22;998;49.906;10.908;2023-04-01T04:36:55;10.00;99.90
1994;DHT22;998;49.906;10.908;2023-04-01T04:39:23;10.00;99.90
1994;DHT22;998;49.906;10.908;2023-04-01T04:41:51;9.90;99.90
1994;DHT22;998;49.906;10.908;2023-04-01T04:44:18;10.00;99.90
1994;DHT22;998;49.906;10.908;2023-04-01T04:46:45;10.00;99.90
1994;DHT22;998;49.906;10.908;2023-04-01T04:49:13;10.00;99.90
1994;DHT22;998;49.906;10.908;2023-04-01T04:51:40;10.00;99.90
1994;DHT22;998;49.906;10.908;2023-04-01T04:54:08;9.90;99.90
1994;DHT22;998;49.906;10.908;2023-04-01T04:56:37;10.00;99.90
1994;DHT22;998;49.906;10.908;2023-04-01T04:59:05;10.00;99.90
1994;DHT22;998;49.906;10.908;2023-04-01T05:01:32;9.90;99.90
1994;DHT22;998;49.906;10.908;2023-04-01T05:04:00;10.00;99.90
1994;DHT22;998;49.906;10.908;2023-04-01T05:06:27;9.90;99.90
1994;DHT22;998;49.906;10.908;2023-04-01T05:08:56;9.80;99.90
1994;DHT22;998;49.906;10.908;2023-04-01T05:11:23;9.90;99.90
1994;DHT22;998;49.906;10.908;2023-04-01T05:13:53;10.00;99.90
1994;DHT22;998;49.906;10.908;2023-04-01T05:16:20;10.00;99.90
1994;DHT22;998;49.906;10.908;2023-04-01T05:18:48;9.90;99.90
1994;DHT22;998;49.906;10.908;2023-04-01T05:21:15;9.90;99.90
1994;DHT22;998;49.906;10.908;2023-04-01T05:23:43;9.90;99.90
1994;DHT22;998;49.906;10.908;2023-04-01T05:26:12;10.00;99.90
1994;DHT22;998;49.906;10.908;2023-04-01T05:28:40;10.00;99.90
1994;DHT22;998;49.906;10.908;2023-04-01T05:31:09;9.90;99.90
1994;DHT22;998;49.906;10.908;2023-04-01T05:33:36;9.80;99.90
1994;DHT22;998;49.906;10.908;2023-04-01T05:36:08;10.00;99.90
1994;DHT22;998;49.906;10.908;2023-04-01T05:38:36;9.90;99.90
1994;DHT22;998;49.906;10.908;2023-04-01T05:41:04;9.90;99.90
1994;DHT22;998;49.906;10.908;2023-04-01T05:43:31;9.80;99.90
1994;DHT22;998;49.906;10.908;2023-04-01T05:45:58;9.90;99.90
1994;DHT22;998;49.906;10.908;2023-04-01T05:48:27;9.90;99.90
1994;DHT22;998;49.906;10.908;2023-04-01T05:50:55;9.90;99.90
1994;DHT22;998;49.906;10.908;2023-04-01T05:53:22;10.00;99.90
1994;DHT22;998;49.906;10.908;2023-04-01T05:55:49;10.00;99.90
1994;DHT22;998;49.906;10.908;2023-04-01T05:58:17;10.00;99.90
1994;DHT22;998;49.906;10.908;2023-04-01T06:00:44;9.90;99.90
1994;DHT22;998;49.906;10.908;2023-04-01T06:03:12;10.00;99.90
1994;DHT22;998;49.906;10.908;2023-04-01T06:05:42;10.00;99.90
1994;DHT22;998;49.906;10.908;2023-04-01T06:08:12;9.90;99.90
1994;DHT22;998;49.906;10.908;2023-04-01T06:10:58;10.00;99.90
1994;DHT22;998;49.906;10.908;2023-04-01T06:13:46;9.90;99.90
1994;DHT22;998;49.906;10.908;2023-04-01T06:16:22;9.90;99.90
1994;DHT22;998;49.906;10.908;2023-04-01T06:19:06;9.90;99.90
1994;DHT22;998;49.906;10.908;2023-04-01T06:22:12;10.00;99.90
1994;DHT22;998;49.906;10.908;2023-04-01T06:24:59;10.00;99.90
1994;DHT22;998;49.906;10.908;2023-04-01T06:27:46;10.00;99.90
1994;DHT22;998;49.906;10.908;2023-04-01T06:30:35;9.90;99.90
1994;DHT22;998;49.906;10.908;2023-04-01T06:33:36;10.00;99.90
1994;DHT22;998;49.906;10.908;2023-04-01T06:36:39;9.90;99.90
1994;DHT22;998;49.906;10.908;2023-04-01T06:39:39;9.90;99.90
1994;DHT22;998;49.906;10.908;2023-04-01T06:42:31;10.00;99.90
1994;DHT22;998;49.906;10.908;2023-04-01T06:45:14;9.90;99.90
1994;DHT22;998;49.906;10.908;2023-04-01T06:47:58;10.00;99.90
1994;DHT22;998;49.906;10.908;2023-04-01T06:50:32;10.00;99.90
1994;DHT22;998;49.906;10.908;2023-04-01T06:53:09;10.00;99.90
1994;DHT22;998;49.906;10.908;2023-04-01T06:55:43;10.00;99.90
1994;DHT22;998;49.906;10.908;2023-04-01T06:58:19;10.00;99.90
1994;DHT22;998;49.906;10.908;2023-04-01T07:00:50;10.00;99.90
1994;DHT22;998;49.906;10.908;2023-04-01T07:03:23;10.10;99.90
1994;DHT22;998;49.906;10.908;2023-04-01T07:05:57;10.20;99.90
1994;DHT22;998;49.906;10.908;2023-04-01T07:08:28;10.00;99.90
1994;DHT22;998;49.906;10.908;2023-04-01T07:11:02;10.00;99.90
1994;DHT22;998;49.906;10.908;2023-04-01T07:13:34;10.10;99.90
1994;DHT22;998;49.906;10.908;2023-04-01T07:16:11;10.00;99.90
1994;DHT22;998;49.906;10.908;2023-04-01T07:18:43;10.00;99.90
1994;DHT22;998;49.906;10.908;2023-04-01T07:21:22;9.90;99.90
1994;DHT22;998;49.906;10.908;2023-04-01T07:23:51;10.00;99.90
1994;DHT22;998;49.906;10.908;2023-04-01T07:26:22;10.00;99.90
1994;DHT22;998;49.906;10.908;2023-04-01T07:28:51;10.00;99.90
1994;DHT22;998;49.906;10.908;2023-04-01T07:31:28;10.00;99.90
1994;DHT22;998;49.906;10.908;2023-04-01T07:34:03;9.90;99.90
1994;DHT22;998;49.906;10.908;2023-04-01T07:36:40;9.90;99.90
1994;DHT22;998;49.906;10.908;2023-04-01T07:39:20;9.90;99.90
1994;DHT22;998;49.906;10.908;2023-04-01T07:41:56;10.00;99.90
1994;DHT22;998;49.906;10.908;2023-04-01T07:44:32;9.90;99.90
1994;DHT22;998;49.906;10.908;2023-04-01T07:50:04;9.80;99.90
1994;DHT22;998;49.906;10.908;2023-04-01T07:52:37;9.80;99.90
1994;DHT22;998;49.906;10.908;2023-04-01T07:55:12;9.70;99.90
1994;DHT22;998;49.906;10.908;2023-04-01T07:57:49;9.70;99.90
1994;DHT22;998;49.906;10.908;2023-04-01T08:00:21;9.70;99.90
1994;DHT22;998;49.906;10.908;2023-04-01T08:05:47;9.60;99.90
1994;DHT22;998;49.906;10.908;2023-04-01T08:08:22;9.70;99.90
1994;DHT22;998;49.906;10.908;2023-04-01T08:10:52;9.70;99.90
1994;DHT22;998;49.906;10.908;2023-04-01T08:13:33;9.70;99.90
1994;DHT22;998;49.906;10.908;2023-04-01T08:16:09;9.70;99.90
1994;DHT22;998;49.906;10.908;2023-04-01T08:18:49;9.80;99.90
1994;DHT22;998;49.906;10.908;2023-04-01T08:21:23;9.80;99.90
1994;DHT22;998;49.906;10.908;2023-04-01T08:23:53;9.70;99.90
1994;DHT22;998;49.906;10.908;2023-04-01T08:26:28;9.70;99.90
1994;DHT22;998;49.906;10.908;2023-04-01T08:29:02;9.80;99.90
1994;DHT22;998;49.906;10.908;2023-04-01T08:31:34;9.80;99.90
1994;DHT22;998;49.906;10.908;2023-04-01T08:34:05;9.70;99.90
1994;DHT22;998;49.906;10.908;2023-04-01T08:36:38;9.70;99.90
1994;DHT22;998;49.906;10.908;2023-04-01T08:39:10;9.70;99.90
1994;DHT22;998;49.906;10.908;2023-04-01T08:42:06;9.70;99.90
1994;DHT22;998;49.906;10.908;2023-04-01T08:48:02;9.80;99.90
1994;DHT22;998;49.906;10.908;2023-04-01T08:53:52;9.90;99.90
1994;DHT22;998;49.906;10.908;2023-04-01T08:56:23;10.00;99.90
1994;DHT22;998;49.906;10.908;2023-04-01T08:59:28;9.90;99.90
1994;DHT22;998;49.906;10.908;2023-04-01T09:02:18;9.90;99.90
1994;DHT22;998;49.906;10.908;2023-04-01T09:05:16;10.00;99.90
1994;DHT22;998;49.906;10.908;2023-04-01T09:07:51;10.00;99.90
1994;DHT22;998;49.906;10.908;2023-04-01T09:13:51;9.90;99.90
1994;DHT22;998;49.906;10.908;2023-04-01T09:16:34;9.90;99.90
1994;DHT22;998;49.906;10.908;2023-04-01T09:19:15;10.00;99.90
1994;DHT22;998;49.906;10.908;2023-04-01T09:25:22;10.00;99.90
1994;DHT22;998;49.906;10.908;2023-04-01T09:27:57;10.10;99.90
1994;DHT22;998;49.906;10.908;2023-04-01T09:30:54;10.10;99.90
1994;DHT22;998;49.906;10.908;2023-04-01T09:33:47;10.10;99.90
1994;DHT22;998;49.906;10.908;2023-04-01T09:36:33;10.20;99.90
1994;DHT22;998;49.906;10.908;2023-04-01T09:39:24;10.20;99.90
1994;DHT22;998;49.906;10.908;2023-04-01T09:42:13;10.20;99.90
1994;DHT22;998;49.906;10.908;2023-04-01T09:44:46;10.20;99.90
1994;DHT22;998;49.906;10.908;2023-04-01T09:47:28;10.20;99.90
1994;DHT22;998;49.906;10.908;2023-04-01T09:50:17;10.10;99.90
1994;DHT22;998;49.906;10.908;2023-04-01T09:52:55;10.20;99.90
1994;DHT22;998;49.906;10.908;2023-04-01T10:01:55;10.20;99.90
1994;DHT22;998;49.906;10.908;2023-04-01T10:11:01;10.20;99.90
1994;DHT22;998;49.906;10.908;2023-04-01T10:13:54;10.20;99.90
1994;DHT22;998;49.906;10.908;2023-04-01T10:20:01;10.10;99.90
1994;DHT22;998;49.906;10.908;2023-04-01T10:28:52;10.00;99.90
1994;DHT22;998;49.906;10.908;2023-04-01T10:31:42;10.00;99.90
1994;DHT22;998;49.906;10.908;2023-04-01T10:34:49;10.00;99.90
1994;DHT22;998;49.906;10.908;2023-04-01T10:37:42;10.00;99.90
1994;DHT22;998;49.906;10.908;2023-04-01T10:40:38;9.90;99.90
1994;DHT22;998;49.906;10.908;2023-04-01T10:43:46;10.00;99.90
1994;DHT22;998;49.906;10.908;2023-04-01T10:53:09;10.00;99.90
1994;DHT22;998;49.906;10.908;2023-04-01T10:56:00;10.00;99.90
1994;DHT22;998;49.906;10.908;2023-04-01T11:02:00;10.00;99.90
1994;DHT22;998;49.906;10.908;2023-04-01T11:11:34;10.00;99.90
1994;DHT22;998;49.906;10.908;2023-04-01T11:14:40;10.10;99.90
1994;DHT22;998;49.906;10.908;2023-04-01T11:23:45;10.20;99.90
1994;DHT22;998;49.906;10.908;2023-04-01T11:26:27;10.20;99.90
1994;DHT22;998;49.906;10.908;2023-04-01T11:29:36;10.10;99.90
1994;DHT22;998;49.906;10.908;2023-04-01T11:32:18;10.20;99.90
1994;DHT22;998;49.906;10.908;2023-04-01T11:35:02;10.20;99.90
1994;DHT22;998;49.906;10.908;2023-04-01T11:37:40;10.10;99.90
1994;DHT22;998;49.906;10.908;2023-04-01T11:40:20;10.30;99.90
1994;DHT22;998;49.906;10.908;2023-04-01T11:42:58;10.20;99.90
1994;DHT22;998;49.906;10.908;2023-04-01T11:45:36;10.30;99.90
1994;DHT22;998;49.906;10.908;2023-04-01T11:48:36;10.20;99.90
1994;DHT22;998;49.906;10.908;2023-04-01T11:51:27;10.10;99.90
1994;DHT22;998;49.906;10.908;2023-04-01T11:54:05;10.10;99.90
1994;DHT22;998;49.906;10.908;2023-04-01T11:56:44;10.10;99.90
1994;DHT22;998;49.906;10.908;2023-04-01T12:02:25;10.10;99.90
1994;DHT22;998;49.906;10.908;2023-04-01T12:05:14;10.00;99.90
1994;DHT22;998;49.906;10.908;2023-04-01T12:07:56;10.00;99.90
1994;DHT22;998;49.906;10.908;2023-04-01T12:10:32;10.10;99.90
1994;DHT22;998;49.906;10.908;2023-04-01T12:13:05;10.10;99.90
1994;DHT22;998;49.906;10.908;2023-04-01T12:15:50;10.20;99.90
1994;DHT22;998;49.906;10.908;2023-04-01T12:18:25;10.20;99.90
1994;DHT22;998;49.906;10.908;2023-04-01T12:20:59;10.10;99.90
1994;DHT22;998;49.906;10.908;2023-04-01T12:24:00;10.10;99.90
1994;DHT22;998;49.906;10.908;2023-04-01T12:26:42;10.10;99.90
1994;DHT22;998;49.906;10.908;2023-04-01T12:29:36;10.20;99.90
1994;DHT22;998;49.906;10.908;2023-04-01T12:32:13;10.20;99.90
1994;DHT22;998;49.906;10.908;2023-04-01T12:37:54;10.20;99.90
1994;DHT22;998;49.906;10.908;2023-04-01T12:40:40;10.30;99.90
1994;DHT22;998;49.906;10.908;2023-04-01T12:43:31;10.40;99.90
1994;DHT22;998;49.906;10.908;2023-04-01T12:46:09;10.50;99.90
1994;DHT22;998;49.906;10.908;2023-04-01T12:49:22;10.40;99.90
1994;DHT22;998;49.906;10.908;2023-04-01T12:52:15;10.40;99.90
1994;DHT22;998;49.906;10.908;2023-04-01T12:55:13;10.40;99.90
1994;DHT22;998;49.906;10.908;2023-04-01T13:01:08;10.30;99.90
1994;DHT22;998;49.906;10.908;2023-04-01T13:03:48;10.30;99.90
1994;DHT22;998;49.906;10.908;2023-04-01T13:06:30;10.40;99.90
1994;DHT22;998;49.906;10.908;2023-04-01T13:09:07;10.40;99.90
1994;DHT22;998;49.906;10.908;2023-04-01T13:11:57;10.30;99.90
1994;DHT22;998;49.906;10.908;2023-04-01T13:14:50;10.30;99.90
1994;DHT22;998;49.906;10.908;2023-04-01T13:17:25;10.40;99.90
1994;DHT22;998;49.906;10.908;2023-04-01T13:20:00;10.30;99.90
1994;DHT22;998;49.906;10.908;2023-04-01T13:22:38;10.30;99.90
1994;DHT22;998;49.906;10.908;2023-04-01T13:25:17;10.40;99.90
1994;DHT22;998;49.906;10.908;2023-04-01T13:27:52;10.30;99.90
1994;DHT22;998;49.906;10.908;2023-04-01T13:30:26;10.40;99.90
1994;DHT22;998;49.906;10.908;2023-04-01T13:33:00;10.40;99.90
1994;DHT22;998;49.906;10.908;2023-04-01T13:35:39;10.40;99.90
1994;DHT22;998;49.906;10.908;2023-04-01T13:39:00;10.50;99.90
1994;DHT22;998;49.906;10.908;2023-04-01T13:41:43;10.50;99.90
1994;DHT22;998;49.906;10.908;2023-04-01T13:44:19;10.50;99.90
1994;DHT22;998;49.906;10.908;2023-04-01T13:50:28;10.60;99.90
1994;DHT22;998;49.906;10.908;2023-04-01T13:53:18;10.50;99.90
1994;DHT22;998;49.906;10.908;2023-04-01T13:55:57;10.50;99.90
1994;DHT22;998;49.906;10.908;2023-04-01T13:58:42;10.40;99.90
1994;DHT22;998;49.906;10.908;2023-04-01T14:01:14;10.40;99.90
1994;DHT22;998;49.906;10.908;2023-04-01T14:04:09;10.50;99.90
1994;DHT22;998;49.906;10.908;2023-04-01T14:06:54;10.50;99.90
1994;DHT22;998;49.906;10.908;2023-04-01T14:09:37;10.60;99.90
1994;DHT22;998;49.906;10.908;2023-04-01T14:12:18;10.60;99.90
1994;DHT22;998;49.906;10.908;2023-04-01T14:14:58;10.50;99.90
1994;DHT22;998;49.906;10.908;2023-04-01T14:17:41;10.50;99.90
1994;DHT22;998;49.906;10.908;2023-04-01T14:20:33;10.50;99.90
1994;DHT22;998;49.906;10.908;2023-04-01T14:23:17;10.50;99.90
1994;DHT22;998;49.906;10.908;2023-04-01T14:26:07;10.50;99.90
1994;DHT22;998;49.906;10.908;2023-04-01T14:28:43;10.50;99.90
1994;DHT22;998;49.906;10.908;2023-04-01T14:31:47;10.50;99.90
1994;DHT22;998;49.906;10.908;2023-04-01T14:34:25;10.60;99.90
1994;DHT22;998;49.906;10.908;2023-04-01T14:37:06;10.70;99.90
1994;DHT22;998;49.906;10.908;2023-04-01T14:40:14;10.70;99.90
1994;DHT22;998;49.906;10.908;2023-04-01T14:45:49;10.70;99.90
1994;DHT22;998;49.906;10.908;2023-04-01T14:48:25;10.80;99.90
1994;DHT22;998;49.906;10.908;2023-04-01T14:50:57;10.80;99.90
1994;DHT22;998;49.906;10.908;2023-04-01T14:53:33;10.80;99.90
1994;DHT22;998;49.906;10.908;2023-04-01T14:56:05;10.80;99.90
1994;DHT22;998;49.906;10.908;2023-04-01T14:58:43;10.70;99.90
1994;DHT22;998;49.906;10.908;2023-04-01T15:01:34;10.70;99.90
1994;DHT22;998;49.906;10.908;2023-04-01T15:04:33;10.70;99.90
1994;DHT22;998;49.906;10.908;2023-04-01T15:07:19;10.90;99.90
1994;DHT22;998;49.906;10.908;2023-04-01T15:09:53;11.00;99.90
1994;DHT22;998;49.906;10.908;2023-04-01T15:12:30;10.90;99.90
1994;DHT22;998;49.906;10.908;2023-04-01T15:15:20;10.80;99.90
1994;DHT22;998;49.906;10.908;2023-04-01T15:18:03;10.90;99.90
1994;DHT22;998;49.906;10.908;2023-04-01T15:20:42;10.80;99.90
1994;DHT22;998;49.906;10.908;2023-04-01T15:23:20;10.80;99.90
1994;DHT22;998;49.906;10.908;2023-04-01T15:29:04;10.90;99.90
1994;DHT22;998;49.906;10.908;2023-04-01T15:31:38;10.70;99.90
1994;DHT22;998;49.906;10.908;2023-04-01T15:34:19;10.80;99.90
1994;DHT22;998;49.906;10.908;2023-04-01T15:36:56;10.80;99.90
1994;DHT22;998;49.906;10.908;2023-04-01T15:39:36;10.80;99.90
1994;DHT22;998;49.906;10.908;2023-04-01T15:42:21;10.80;99.90
1994;DHT22;998;49.906;10.908;2023-04-01T15:45:08;10.80;99.90
1994;DHT22;998;49.906;10.908;2023-04-01T15:47:41;10.70;99.90
1994;DHT22;998;49.906;10.908;2023-04-01T15:53:23;10.80;99.90
1994;DHT22;998;49.906;10.908;2023-04-01T15:55:58;10.80;99.90
1994;DHT22;998;49.906;10.908;2023-04-01T15:58:40;10.70;99.90
1994;DHT22;998;49.906;10.908;2023-04-01T16:01:25;10.60;99.90
1994;DHT22;998;49.906;10.908;2023-04-01T16:03:57;10.70;99.90
1994;DHT22;998;49.906;10.908;2023-04-01T16:06:49;10.70;99.90
1994;DHT22;998;49.906;10.908;2023-04-01T16:09:39;10.80;99.90
1994;DHT22;998;49.906;10.908;2023-04-01T16:12:16;10.80;99.90
1994;DHT22;998;49.906;10.908;2023-04-01T16:14:55;10.80;99.90
1994;DHT22;998;49.906;10.908;2023-04-01T16:17:49;10.80;99.90
1994;DHT22;998;49.906;10.908;2023-04-01T16:20:26;10.80;99.90
1994;DHT22;998;49.906;10.908;2023-04-01T16:23:03;10.80;99.90
1994;DHT22;998;49.906;10.908;2023-04-01T16:25:36;10.80;99.90
1994;DHT22;998;49.906;10.908;2023-04-01T16:28:16;10.70;99.90
1994;DHT22;998;49.906;10.908;2023-04-01T16:30:48;10.70;99.90
1994;DHT22;998;49.906;10.908;2023-04-01T16:33:32;10.60;99.90
1994;DHT22;998;49.906;10.908;2023-04-01T16:36:10;10.60;99.90
1994;DHT22;998;49.906;10.908;2023-04-01T16:38:41;10.60;99.90
1994;DHT22;998;49.906;10.908;2023-04-01T16:41:14;10.60;99.90
1994;DHT22;998;49.906;10.908;2023-04-01T16:43:45;10.60;99.90
1994;DHT22;998;49.906;10.908;2023-04-01T16:46:35;10.50;99.90
1994;DHT22;998;49.906;10.908;2023-04-01T16:49:23;10.60;99.90
1994;DHT22;998;49.906;10.908;2023-04-01T16:51:54;10.50;99.90
1994;DHT22;998;49.906;10.908;2023-04-01T16:54:28;10.50;99.90
1994;DHT22;998;49.906;10.908;2023-04-01T16:57:10;10.40;99.90
1994;DHT22;998;49.906;10.908;2023-04-01T16:59:48;10.30;99.90
1994;DHT22;998;49.906;10.908;2023-04-01T17:02:25;10.30;99.90
1994;DHT22;998;49.906;10.908;2023-04-01T17:04:58;10.30;99.90
1994;DHT22;998;49.906;10.908;2023-04-01T17:07:35;10.20;99.90
1994;DHT22;998;49.906;10.908;2023-04-01T17:10:41;10.20;99.90
1994;DHT22;998;49.906;10.908;2023-04-01T17:13:26;10.20;99.90
1994;DHT22;998;49.906;10.908;2023-04-01T17:16:04;10.10;99.90
1994;DHT22;998;49.906;10.908;2023-04-01T17:18:38;10.20;99.90
1994;DHT22;998;49.906;10.908;2023-04-01T17:21:16;10.20;99.90
1994;DHT22;998;49.906;10.908;2023-04-01T17:23:51;10.20;99.90
1994;DHT22;998;49.906;10.908;2023-04-01T17:26:27;10.20;99.90
1994;DHT22;998;49.906;10.908;2023-04-01T17:29:00;10.20;99.90
1994;DHT22;998;49.906;10.908;2023-04-01T17:31:50;10.30;99.90
1994;DHT22;998;49.906;10.908;2023-04-01T17:37:27;10.10;99.90
1994;DHT22;998;49.906;10.908;2023-04-01T17:40:15;10.10;99.90
1994;DHT22;998;49.906;10.908;2023-04-01T17:42:54;10.20;99.90
1994;DHT22;998;49.906;10.908;2023-04-01T17:45:30;10.10;99.90
1994;DHT22;998;49.906;10.908;2023-04-01T17:48:08;10.20;99.90
1994;DHT22;998;49.906;10.908;2023-04-01T17:50:53;10.10;99.90
1994;DHT22;998;49.906;10.908;2023-04-01T17:53:35;10.10;99.90
1994;DHT22;998;49.906;10.908;2023-04-01T17:56:18;10.10;99.90
1994;DHT22;998;49.906;10.908;2023-04-01T17:58:52;10.10;99.90
1994;DHT22;998;49.906;10.908;2023-04-01T18:01:30;10.10;99.90
1994;DHT22;998;49.906;10.908;2023-04-01T18:04:14;10.00;99.90
1994;DHT22;998;49.906;10.908;2023-04-01T18:07:06;10.10;99.90
1994;DHT22;998;49.906;10.908;2023-04-01T18:09:49;10.10;99.90
1994;DHT22;998;49.906;10.908;2023-04-01T18:12:32;10.10;99.90
1994;DHT22;998;49.906;10.908;2023-04-01T18:15:12;10.10;99.90
1994;DHT22;998;49.906;10.908;2023-04-01T18:18:07;10.00;99.90
1994;DHT22;998;49.906;10.908;2023-04-01T18:20:46;10.00;99.90
1994;DHT22;998;49.906;10.908;2023-04-01T18:23:26;10.00;99.90
1994;DHT22;998;49.906;10.908;2023-04-01T18:26:04;10.00;99.90
1994;DHT22;998;49.906;10.908;2023-04-01T18:28:36;10.00;99.90
1994;DHT22;998;49.906;10.908;2023-04-01T18:31:11;10.00;99.90
1994;DHT22;998;49.906;10.908;2023-04-01T18:33:54;10.10;99.90
1994;DHT22;998;49.906;10.908;2023-04-01T18:36:32;10.10;99.90
1994;DHT22;998;49.906;10.908;2023-04-01T18:39:04;10.10;99.90
1994;DHT22;998;49.906;10.908;2023-04-01T18:41:42;10.10;99.90